createdAt,value
2023-04-24T00:01:14.166Z,98040.22
2023-04-24T00:03:47.358Z,98026.38
2023-04-24T00:06:21.656Z,98028.88
2023-04-24T00:08:54.736Z,98029.31
2023-04-24T00:11:27.827Z,98031.34
2023-04-24T00:14:00.668Z,98036.78
2023-04-24T00:16:33.498Z,98037.72
2023-04-24T00:19:06.944Z,98037.13
2023-04-24T00:21:41.949Z,98023.28
2023-04-24T00:24:14.698Z,98030.56
2023-04-24T00:26:47.535Z,98018.59
2023-04-24T00:29:20.441Z,98017.66
2023-04-24T00:31:53.275Z,98019.69
2023-04-24T00:34:26.154Z,98014.84
2023-04-24T00:37:00.499Z,98000.88
2023-04-24T00:39:33.297Z,98006.63
2023-04-24T00:42:07.374Z,98003.53
2023-04-24T00:44:40.973Z,98004.59
2023-04-24T00:47:15.846Z,98008.03
2023-04-24T00:49:48.631Z,97991.72
2023-04-24T00:52:25.396Z,97995.91
2023-04-24T00:54:58.310Z,97993.88
2023-04-24T00:57:31.297Z,97982.84
2023-04-24T01:00:05.700Z,97989.53
2023-04-24T01:02:41.251Z,97994.97
2023-04-24T01:05:16.048Z,97998.09
2023-04-24T01:07:51.291Z,97985.81
2023-04-24T01:10:26.228Z,97980.03
2023-04-24T01:12:59.922Z,97992.63
2023-04-24T01:15:32.833Z,97998.88
2023-04-24T01:18:07.048Z,98004.13
2023-04-24T01:20:42.296Z,98011.75
2023-04-24T01:23:16.479Z,98000.72
2023-04-24T01:25:51.412Z,98000.09
2023-04-24T01:28:25.162Z,98004.75
2023-04-24T01:30:58.103Z,98003.38
2023-04-24T01:33:31.125Z,97997.94
2023-04-24T01:36:03.977Z,98003.38
2023-04-24T01:38:38.155Z,98008.41
2023-04-24T01:41:11.330Z,98001.44
2023-04-24T01:43:44.492Z,98002.22
2023-04-24T01:46:17.480Z,98003.66
2023-04-24T01:48:50.496Z,97994.63
2023-04-24T01:51:27.962Z,97995.72
2023-04-24T01:54:02.135Z,97991.91
2023-04-24T01:56:36.940Z,97991.94
2023-04-24T01:59:10.986Z,97987.34
2023-04-24T02:01:43.959Z,97981.84
2023-04-24T02:04:17.159Z,97982.69
2023-04-24T02:06:50.515Z,97978.34
2023-04-24T02:09:25.023Z,97975.19
2023-04-24T02:11:58.318Z,97974.44
2023-04-24T02:14:31.196Z,97971.75
2023-04-24T02:17:03.987Z,97966.94
2023-04-24T02:19:36.972Z,97966.47
2023-04-24T02:22:09.793Z,97959.50
2023-04-24T02:24:44.050Z,97960.41
2023-04-24T02:27:17.013Z,97959.50
2023-04-24T02:29:49.830Z,97952.94
2023-04-24T02:32:22.614Z,97956.69
2023-04-24T02:34:55.601Z,97952.97
2023-04-24T02:37:28.403Z,97959.53
2023-04-24T02:40:02.624Z,97958.22
2023-04-24T02:42:35.620Z,97957.75
2023-04-24T02:45:09.538Z,97956.50
2023-04-24T02:47:42.383Z,97956.66
2023-04-24T02:50:15.298Z,97954.19
2023-04-24T02:52:48.401Z,97951.81
2023-04-24T02:55:22.613Z,97957.56
2023-04-24T02:57:55.582Z,97957.31
2023-04-24T03:00:28.482Z,97958.50
2023-04-24T03:03:01.567Z,97957.88
2023-04-24T03:05:34.690Z,97960.06
2023-04-24T03:08:07.591Z,97967.19
2023-04-24T03:10:41.780Z,97957.53
2023-04-24T03:13:14.597Z,97947.31
2023-04-24T03:15:48.253Z,97947.63
2023-04-24T03:18:21.688Z,97945.56
2023-04-24T03:20:56.988Z,97946.84
2023-04-24T03:23:30.047Z,97936.03
2023-04-24T03:26:05.307Z,97934.44
2023-04-24T03:28:39.397Z,97943.84
2023-04-24T03:31:12.413Z,97938.09
2023-04-24T03:33:45.271Z,97945.22
2023-04-24T03:36:18.804Z,97944.53
2023-04-24T03:38:51.772Z,97958.19
2023-04-24T03:41:37.907Z,97949.31
2023-04-24T03:44:16.950Z,97954.97
2023-04-24T03:46:50.025Z,97948.41
2023-04-24T03:49:23.776Z,97950.94
2023-04-24T03:51:56.870Z,97945.25
2023-04-24T03:54:32.710Z,97949.69
2023-04-24T03:57:08.147Z,97947.44
2023-04-24T03:59:44.998Z,97945.72
2023-04-24T04:02:24.329Z,97952.28
2023-04-24T04:04:57.481Z,97952.84
2023-04-24T04:07:30.821Z,97950.41
2023-04-24T04:10:04.558Z,97945.31
2023-04-24T04:12:38.793Z,97953.75
2023-04-24T04:15:12.502Z,97958.91
2023-04-24T04:17:46.802Z,97958.19
2023-04-24T04:20:19.673Z,97952.41
2023-04-24T04:22:52.447Z,97954.53
2023-04-24T04:25:39.537Z,97950.66
2023-04-24T04:28:13.868Z,97956.78
2023-04-24T04:30:48.107Z,97952.78
2023-04-24T04:33:21.629Z,97950.56
2023-04-24T04:35:57.699Z,97947.75
2023-04-24T04:38:32.673Z,97957.13
2023-04-24T04:41:13.776Z,97965.03
2023-04-24T04:43:49.194Z,97965.47
2023-04-24T04:46:22.879Z,97968.00
2023-04-24T04:49:06.323Z,97968.81
2023-04-24T04:51:41.186Z,97967.50
2023-04-24T04:54:15.661Z,97975.00
2023-04-24T04:56:48.859Z,97981.47
2023-04-24T04:59:23.487Z,97976.22
2023-04-24T05:02:03.002Z,97986.47
2023-04-24T05:04:37.186Z,97992.88
2023-04-24T05:07:10.212Z,98000.16
2023-04-24T05:09:46.442Z,98010.69
2023-04-24T05:12:19.934Z,98016.19
2023-04-24T05:14:58.964Z,98026.28
2023-04-24T05:17:33.067Z,98036.84
2023-04-24T05:20:07.955Z,98042.72
2023-04-24T05:22:41.018Z,98052.75
2023-04-24T05:25:14.393Z,98039.03
2023-04-24T05:27:54.335Z,98043.25
2023-04-24T05:30:28.820Z,98042.28
2023-04-24T05:33:02.553Z,98038.53
2023-04-24T05:35:37.125Z,98042.03
2023-04-24T05:38:10.434Z,98038.13
2023-04-24T05:40:43.501Z,98035.34
2023-04-24T05:43:16.393Z,98046.41
2023-04-24T05:45:50.661Z,98050.41
2023-04-24T05:48:25.175Z,98051.78
2023-04-24T05:50:58.303Z,98057.88
2023-04-24T05:53:31.721Z,98058.97
2023-04-24T05:56:05.150Z,98065.38
2023-04-24T05:58:39.126Z,98065.78
2023-04-24T06:01:13.631Z,98067.34
2023-04-24T06:03:46.730Z,98073.66
2023-04-24T06:06:20.333Z,98073.91
2023-04-24T06:08:53.199Z,98079.22
2023-04-24T06:11:26.379Z,98087.59
2023-04-24T06:13:59.491Z,98085.56
2023-04-24T06:17:05.336Z,98083.19
2023-04-24T06:19:43.365Z,98096.88
2023-04-24T06:22:16.345Z,98101.59
2023-04-24T06:24:49.407Z,98109.38
2023-04-24T06:27:22.530Z,98124.06
2023-04-24T06:29:56.280Z,98110.09
2023-04-24T06:32:31.858Z,98122.06
2023-04-24T06:35:08.432Z,98129.56
2023-04-24T06:37:41.413Z,98127.72
2023-04-24T06:40:14.653Z,98123.16
2023-04-24T06:42:47.653Z,98139.84
2023-04-24T06:45:21.108Z,98127.88
2023-04-24T06:47:55.404Z,98133.06
2023-04-24T06:50:28.302Z,98130.84
2023-04-24T06:53:01.188Z,98128.16
2023-04-24T06:55:34.256Z,98130.91
2023-04-24T06:58:07.371Z,98132.75
2023-04-24T07:00:40.390Z,98133.31
2023-04-24T07:03:14.661Z,98138.91
2023-04-24T07:05:48.724Z,98135.72
2023-04-24T07:08:23.156Z,98137.97
2023-04-24T07:10:56.898Z,98135.34
2023-04-24T07:13:29.714Z,98140.00
2023-04-24T07:16:02.530Z,98136.50
2023-04-24T07:18:37.515Z,98152.53
2023-04-24T07:21:10.621Z,98158.38
2023-04-24T07:23:43.339Z,98156.41
2023-04-24T07:26:17.584Z,98161.50
2023-04-24T07:28:50.569Z,98167.44
2023-04-24T07:31:23.366Z,98171.06
2023-04-24T07:33:59.033Z,98170.34
2023-04-24T07:36:33.515Z,98167.09
2023-04-24T07:39:06.909Z,98169.16
2023-04-24T07:41:39.679Z,98172.91
2023-04-24T07:44:12.570Z,98166.38
2023-04-24T07:46:45.519Z,98178.03
2023-04-24T07:49:20.089Z,98182.88
2023-04-24T07:51:52.984Z,98186.44
2023-04-24T07:54:26.022Z,98193.13
2023-04-24T07:56:58.812Z,98185.78
2023-04-24T07:59:31.592Z,98182.41
2023-04-24T08:02:04.369Z,98200.22
2023-04-24T08:04:38.728Z,98194.19
2023-04-24T08:07:13.811Z,98203.66
2023-04-24T08:09:46.722Z,98197.84
2023-04-24T08:12:19.480Z,98197.41
2023-04-24T08:14:52.282Z,98195.84
2023-04-24T08:17:26.641Z,98193.72
2023-04-24T08:20:02.552Z,98191.69
2023-04-24T08:22:35.678Z,98189.38
2023-04-24T08:25:10.000Z,98188.28
2023-04-24T08:27:42.872Z,98187.47
2023-04-24T08:30:15.885Z,98198.44
2023-04-24T08:32:48.755Z,98190.63
2023-04-24T08:35:24.053Z,98211.97
2023-04-24T08:37:56.948Z,98208.06
2023-04-24T08:40:31.765Z,98203.25
2023-04-24T08:43:05.654Z,98193.75
2023-04-24T08:45:39.614Z,98194.16
2023-04-24T08:48:23.322Z,98210.09
2023-04-24T08:51:02.293Z,98196.47
2023-04-24T08:53:35.254Z,98197.34
2023-04-24T08:56:09.057Z,98195.78
2023-04-24T08:58:43.448Z,98197.75
2023-04-24T09:01:16.406Z,98211.31
2023-04-24T09:03:51.564Z,98211.72
2023-04-24T09:06:27.177Z,98216.41
2023-04-24T09:09:02.333Z,98226.78
2023-04-24T09:11:35.232Z,98225.63
2023-04-24T09:14:09.209Z,98238.41
2023-04-24T09:16:42.364Z,98241.59
2023-04-24T09:19:15.250Z,98244.16
2023-04-24T09:21:49.755Z,98237.75
2023-04-24T09:24:24.327Z,98234.53
2023-04-24T09:27:02.933Z,98236.03
2023-04-24T09:29:36.401Z,98223.81
2023-04-24T09:32:22.616Z,98236.75
2023-04-24T09:35:10.134Z,98242.19
2023-04-24T09:37:45.977Z,98249.75
2023-04-24T09:40:20.489Z,98226.19
2023-04-24T09:42:56.786Z,98224.88
2023-04-24T09:45:30.709Z,98236.59
2023-04-24T09:48:03.946Z,98239.06
2023-04-24T09:50:40.091Z,98227.44
2023-04-24T09:53:14.359Z,98241.75
2023-04-24T09:55:49.570Z,98241.53
2023-04-24T09:58:27.994Z,98245.50
2023-04-24T10:01:00.982Z,98246.88
2023-04-24T10:03:35.240Z,98250.22
2023-04-24T10:06:10.123Z,98248.44
2023-04-24T10:08:45.478Z,98247.72
2023-04-24T10:11:18.970Z,98245.81
2023-04-24T10:13:52.090Z,98231.78
2023-04-24T10:16:28.217Z,98241.84
2023-04-24T10:19:02.062Z,98234.22
2023-04-24T10:21:36.070Z,98238.88
2023-04-24T10:24:11.037Z,98244.75
2023-04-24T10:26:45.189Z,98243.97
2023-04-24T10:29:19.999Z,98252.22
2023-04-24T10:31:53.123Z,98257.16
2023-04-24T10:34:26.527Z,98263.91
2023-04-24T10:36:59.594Z,98262.88
2023-04-24T10:39:34.618Z,98263.97
2023-04-24T10:42:16.916Z,98269.91
2023-04-24T10:44:49.999Z,98274.41
2023-04-24T10:47:22.860Z,98286.88
2023-04-24T10:49:55.969Z,98287.03
2023-04-24T10:52:46.317Z,98288.59
2023-04-24T10:55:45.168Z,98296.97
2023-04-24T10:58:19.190Z,98289.00
2023-04-24T11:00:59.598Z,98291.41
2023-04-24T11:03:34.281Z,98302.44
2023-04-24T11:06:09.085Z,98285.41
2023-04-24T11:08:45.906Z,98303.53
2023-04-24T11:11:21.809Z,98302.16
2023-04-24T11:14:07.632Z,98311.66
2023-04-24T11:16:55.006Z,98315.56
2023-04-24T11:19:29.795Z,98319.41
2023-04-24T11:22:05.285Z,98320.50
2023-04-24T11:24:42.784Z,98322.09
2023-04-24T11:27:25.378Z,98326.72
2023-04-24T11:30:02.913Z,98330.56
2023-04-24T11:32:39.925Z,98339.41
2023-04-24T11:35:17.632Z,98331.97
2023-04-24T11:40:27.957Z,98335.00
2023-04-24T11:43:02.512Z,98324.78
2023-04-24T11:45:35.507Z,98317.31
2023-04-24T11:48:08.849Z,98310.72
2023-04-24T11:50:42.172Z,98317.47
2023-04-24T11:53:15.009Z,98333.75
2023-04-24T11:55:48.898Z,98328.66
2023-04-24T11:58:24.353Z,98328.34
2023-04-24T12:01:02.322Z,98318.69
2023-04-24T12:03:35.443Z,98343.19
2023-04-24T12:06:09.849Z,98345.25
2023-04-24T12:08:42.821Z,98340.16
2023-04-24T12:11:18.714Z,98340.44
2023-04-24T12:13:52.823Z,98332.81
2023-04-24T12:16:28.082Z,98333.78
2023-04-24T12:19:02.001Z,98336.09
2023-04-24T12:21:37.516Z,98348.13
2023-04-24T12:24:10.377Z,98341.41
2023-04-24T12:26:45.411Z,98354.16
2023-04-24T12:29:23.508Z,98353.72
2023-04-24T12:31:56.444Z,98354.91
2023-04-24T12:34:29.424Z,98343.53
2023-04-24T12:37:12.464Z,98343.19
2023-04-24T12:40:01.524Z,98342.00
2023-04-24T12:42:34.910Z,98346.59
2023-04-24T12:45:09.987Z,98348.28
2023-04-24T12:47:43.661Z,98345.06
2023-04-24T12:50:17.943Z,98338.44
2023-04-24T12:52:51.211Z,98356.41
2023-04-24T12:55:24.240Z,98349.69
2023-04-24T12:57:57.141Z,98340.81
2023-04-24T13:00:31.619Z,98346.97
2023-04-24T13:03:05.447Z,98369.63
2023-04-24T13:05:38.278Z,98349.41
2023-04-24T13:08:11.130Z,98348.00
2023-04-24T13:10:44.027Z,98339.47
2023-04-24T13:13:17.073Z,98342.91
2023-04-24T13:15:51.188Z,98350.91
2023-04-24T13:18:23.913Z,98342.56
2023-04-24T13:20:57.514Z,98353.19
2023-04-24T13:23:30.533Z,98344.88
2023-04-24T13:26:03.587Z,98332.44
2023-04-24T13:28:36.624Z,98340.56
2023-04-24T13:31:11.781Z,98349.69
2023-04-24T13:33:44.952Z,98348.88
2023-04-24T13:36:18.428Z,98346.09
2023-04-24T13:38:51.294Z,98338.13
2023-04-24T13:41:24.079Z,98333.09
2023-04-24T13:43:57.200Z,98329.16
2023-04-24T13:46:31.530Z,98342.47
2023-04-24T13:49:05.076Z,98349.88
2023-04-24T13:51:38.256Z,98340.78
2023-04-24T13:54:13.397Z,98345.78
2023-04-24T13:56:46.192Z,98346.22
2023-04-24T13:59:19.243Z,98326.78
2023-04-24T14:01:53.468Z,98322.84
2023-04-24T14:04:26.787Z,98334.41
2023-04-24T14:06:59.963Z,98323.03
2023-04-24T14:09:32.693Z,98327.91
2023-04-24T14:12:06.673Z,98332.31
2023-04-24T14:14:39.559Z,98337.22
2023-04-24T14:17:13.770Z,98348.63
2023-04-24T14:19:46.822Z,98341.28
2023-04-24T14:22:19.887Z,98336.72
2023-04-24T14:24:52.804Z,98362.75
2023-04-24T14:27:26.368Z,98354.19
2023-04-24T14:29:59.259Z,98366.00
2023-04-24T14:32:33.571Z,98358.94
2023-04-24T14:35:07.766Z,98374.09
2023-04-24T14:37:42.164Z,98360.09
2023-04-24T14:40:29.808Z,98382.41
2023-04-24T14:43:08.043Z,98367.47
2023-04-24T14:45:42.454Z,98380.69
2023-04-24T14:48:17.619Z,98365.06
2023-04-24T14:50:50.479Z,98365.84
2023-04-24T14:53:23.305Z,98370.69
2023-04-24T14:55:56.570Z,98371.03
2023-04-24T14:58:29.482Z,98361.09
2023-04-24T15:01:02.441Z,98355.38
2023-04-24T15:03:37.063Z,98363.13
2023-04-24T15:06:09.955Z,98367.81
2023-04-24T15:08:43.064Z,98373.28
2023-04-24T15:11:16.054Z,98378.91
2023-04-24T15:13:49.065Z,98389.09
2023-04-24T15:16:22.244Z,98390.16
2023-04-24T15:18:58.090Z,98386.53
2023-04-24T15:21:30.920Z,98382.28
2023-04-24T15:24:03.743Z,98396.34
2023-04-24T15:26:36.789Z,98385.69
2023-04-24T15:29:10.750Z,98383.31
2023-04-24T15:31:43.784Z,98386.41
2023-04-24T15:34:18.021Z,98387.00
2023-04-24T15:36:50.833Z,98373.25
2023-04-24T15:39:24.997Z,98387.75
2023-04-24T15:41:58.409Z,98394.81
2023-04-24T15:44:31.229Z,98379.94
2023-04-24T15:47:04.064Z,98397.91
2023-04-24T15:49:38.245Z,98395.97
2023-04-24T15:52:11.816Z,98403.44
2023-04-24T15:54:44.561Z,98392.53
2023-04-24T15:57:17.366Z,98395.31
2023-04-24T15:59:50.410Z,98410.59
2023-04-24T16:02:24.266Z,98393.91
2023-04-24T16:04:58.790Z,98394.66
2023-04-24T16:07:32.680Z,98391.22
2023-04-24T16:10:06.361Z,98395.75
2023-04-24T16:12:39.362Z,98392.38
2023-04-24T16:15:12.714Z,98394.53
2023-04-24T16:17:45.946Z,98394.50
2023-04-24T16:20:20.824Z,98384.38
2023-04-24T16:22:53.839Z,98391.09
2023-04-24T16:25:26.622Z,98400.47
2023-04-24T16:27:59.678Z,98399.53
2023-04-24T16:30:32.534Z,98407.31
2023-04-24T16:33:07.526Z,98406.38
2023-04-24T16:35:43.198Z,98402.66
2023-04-24T16:38:16.342Z,98415.75
2023-04-24T16:40:55.024Z,98418.66
2023-04-24T16:43:28.230Z,98422.13
2023-04-24T16:46:01.648Z,98412.28
2023-04-24T16:48:35.020Z,98416.41
2023-04-24T16:51:09.310Z,98421.13
2023-04-24T16:53:42.216Z,98411.16
2023-04-24T17:14:06.265Z,98439.31
2023-04-24T17:16:40.405Z,98426.00
2023-04-24T17:19:13.736Z,98425.75
2023-04-24T17:21:49.670Z,98434.19
2023-04-24T17:24:22.550Z,98429.47
2023-04-24T17:26:58.935Z,98427.31
2023-04-24T17:29:36.056Z,98432.31
2023-04-24T17:32:09.305Z,98430.72
2023-04-24T17:34:42.214Z,98436.00
2023-04-24T17:37:15.223Z,98426.16
2023-04-24T17:39:48.008Z,98435.28
2023-04-24T17:42:20.999Z,98435.06
2023-04-24T17:44:55.966Z,98433.09
2023-04-24T17:47:30.713Z,98445.22
2023-04-24T17:50:03.670Z,98444.81
2023-04-24T17:52:36.587Z,98437.13
2023-04-24T17:55:09.746Z,98444.91
2023-04-24T17:57:42.762Z,98435.41
2023-04-24T18:00:17.833Z,98438.38
2023-04-24T18:02:53.800Z,98435.81
2023-04-24T18:05:26.828Z,98443.31
2023-04-24T18:08:00.172Z,98432.28
2023-04-24T18:10:35.352Z,98436.03
2023-04-24T18:13:08.164Z,98435.03
2023-04-24T18:15:43.682Z,98449.56
2023-04-24T18:18:18.113Z,98445.66
2023-04-24T18:20:50.971Z,98456.38
2023-04-24T18:23:23.790Z,98453.00
2023-04-24T18:25:56.457Z,98450.22
2023-04-24T18:28:31.604Z,98451.13
2023-04-24T18:31:07.465Z,98461.06
2023-04-24T18:33:40.361Z,98456.25
2023-04-24T18:36:13.117Z,98455.13
2023-04-24T18:38:48.241Z,98460.22
2023-04-24T18:41:21.175Z,98462.28
2023-04-24T18:43:57.944Z,98468.97
2023-04-24T18:46:37.825Z,98466.19
2023-04-24T18:49:10.809Z,98472.22
2023-04-24T18:51:53.258Z,98475.75
2023-04-24T18:54:27.597Z,98485.34
2023-04-24T18:57:01.709Z,98490.91
2023-04-24T18:59:34.558Z,98488.78
2023-04-24T19:02:09.231Z,98486.25
2023-04-24T19:04:42.256Z,98492.72
2023-04-24T19:07:15.000Z,98495.06
2023-04-24T19:09:48.007Z,98496.06
2023-04-24T19:12:22.808Z,98502.84
2023-04-24T19:14:57.951Z,98504.34
2023-04-24T19:17:32.578Z,98509.09
2023-04-24T19:20:06.692Z,98518.03
2023-04-24T19:22:39.518Z,98513.56
2023-04-24T19:25:12.379Z,98518.06
2023-04-24T19:27:45.137Z,98514.56
2023-04-24T19:30:17.968Z,98511.53
2023-04-24T19:32:52.188Z,98518.13
2023-04-24T19:35:25.203Z,98508.88
2023-04-24T19:37:58.155Z,98511.69
2023-04-24T19:40:31.137Z,98517.94
2023-04-24T19:43:03.983Z,98509.09
2023-04-24T19:45:37.768Z,98511.34
2023-04-24T19:48:12.217Z,98502.22
2023-04-24T19:50:45.098Z,98512.63
2023-04-24T19:53:18.094Z,98510.66
2023-04-24T19:55:51.629Z,98513.19
2023-04-24T19:58:24.526Z,98512.16
2023-04-24T20:00:57.676Z,98516.25
2023-04-24T20:03:33.896Z,98512.63
2023-04-24T20:06:07.443Z,98513.81
2023-04-24T20:08:40.438Z,98514.69
2023-04-24T20:11:13.318Z,98510.00
2023-04-24T20:13:46.188Z,98506.06
2023-04-24T20:16:19.463Z,98509.38
2023-04-24T20:18:53.694Z,98506.69
2023-04-24T20:21:26.620Z,98504.34
2023-04-24T20:23:59.515Z,98511.19
2023-04-24T20:26:32.305Z,98517.56
2023-04-24T20:29:06.788Z,98515.47
2023-04-24T20:31:39.779Z,98518.50
2023-04-24T20:34:14.203Z,98513.47
2023-04-24T20:36:49.720Z,98511.28
2023-04-24T20:39:23.125Z,98506.25
2023-04-24T20:41:56.045Z,98512.16
2023-04-24T20:44:29.368Z,98506.84
2023-04-24T20:47:02.423Z,98511.72
2023-04-24T20:49:36.665Z,98509.28
2023-04-24T20:52:09.493Z,98501.88
2023-04-24T20:54:42.830Z,98501.72
2023-04-24T20:57:15.946Z,98504.06
2023-04-24T20:59:48.973Z,98509.31
2023-04-24T21:02:22.091Z,98509.72
2023-04-24T21:04:56.361Z,98505.63
2023-04-24T21:07:29.668Z,98501.47
2023-04-24T21:10:02.832Z,98503.28
2023-04-24T21:12:35.604Z,98508.34
2023-04-24T21:15:09.401Z,98496.06
2023-04-24T21:17:42.612Z,98493.22
2023-04-24T21:20:17.091Z,98490.56
2023-04-24T21:22:49.873Z,98487.63
2023-04-24T21:25:22.686Z,98489.78
2023-04-24T21:27:55.837Z,98487.25
2023-04-24T21:30:30.309Z,98491.16
2023-04-24T21:33:03.506Z,98495.44
2023-04-24T21:35:38.295Z,98483.59
2023-04-24T21:38:11.259Z,98486.44
2023-04-24T21:40:44.147Z,98491.44
2023-04-24T21:43:17.098Z,98480.72
2023-04-24T21:45:50.296Z,98476.72
2023-04-24T21:48:23.288Z,98484.31
2023-04-24T21:50:57.437Z,98472.25
2023-04-24T21:53:30.582Z,98478.06
2023-04-24T21:56:03.603Z,98476.03
2023-04-24T21:58:37.060Z,98482.22
2023-04-24T22:01:10.270Z,98482.56
2023-04-24T22:08:12.183Z,98466.00
2023-04-24T22:10:45.040Z,98466.47
2023-04-24T22:13:17.929Z,98475.75
2023-04-24T22:15:51.766Z,98468.81
2023-04-24T22:18:30.607Z,98471.97
2023-04-24T22:21:09.665Z,98466.19
2023-04-24T22:23:44.380Z,98470.38
2023-04-24T22:26:17.322Z,98459.38
2023-04-24T22:28:50.146Z,98466.19
2023-04-24T22:31:23.471Z,98460.97
2023-04-24T22:33:56.866Z,98456.00
2023-04-24T22:36:29.686Z,98457.38
2023-04-24T22:39:05.042Z,98461.88
2023-04-24T22:41:37.850Z,98451.41
2023-04-24T22:44:11.349Z,98448.50
2023-04-24T22:46:45.279Z,98445.38
2023-04-24T22:49:18.092Z,98440.88
2023-04-24T22:51:51.787Z,98442.59
2023-04-24T22:54:26.078Z,98437.41
2023-04-24T22:56:58.992Z,98428.25
2023-04-24T22:59:31.803Z,98442.78
2023-04-24T23:02:04.631Z,98431.63
2023-04-24T23:04:37.749Z,98432.56
2023-04-24T23:07:10.544Z,98434.31
2023-04-24T23:09:44.664Z,98440.44
2023-04-24T23:12:17.469Z,98432.06
2023-04-24T23:14:50.596Z,98425.81
2023-04-24T23:17:23.822Z,98432.44
2023-04-24T23:19:57.146Z,98418.91
2023-04-24T23:22:33.977Z,98420.75
2023-04-24T23:25:09.891Z,98425.28
2023-04-24T23:27:42.772Z,98412.94
2023-04-24T23:30:15.627Z,98408.63
2023-04-24T23:32:48.484Z,98410.66
2023-04-24T23:35:21.389Z,98413.78
2023-04-24T23:37:54.213Z,98401.59
2023-04-24T23:40:28.484Z,98410.22
2023-04-24T23:43:07.479Z,98397.81
2023-04-24T23:45:41.651Z,98396.41
2023-04-24T23:48:14.511Z,98389.19
2023-04-24T23:50:47.276Z,98396.81
2023-04-24T23:53:20.287Z,98395.50
2023-04-24T23:55:54.604Z,98390.03
2023-04-24T23:58:27.408Z,98384.88
